Captain Ed — WDF6338 — position and weather

sailwx.info

Track history (hours):
 
Tides and Currents Weather Stations Pressure Air Temp Water Temp Dewpoint Dewpoint Depression Visibility Wind Speed Wind Dir Waves Ship Positions

Captain Ed

Owner: Norfolk Dredging Company, Chesapeake, VA. More information available from US FCC via Universal Licensing System and Coast Guard Vessel Documentation Center.

Last reported at 2017-Jan-10 20:06 UTC. Time now 2017-Jan-19 04:41 UTC.
Position N 36°43' W 076°14'.
Warning: this ship's position is 8 days out of date.

Length 22 m; draft 3 m.

Type: Tug. MMSI: 367473210.

Date/timePositionNaut miles runAvg speedWind from/ knotsBaromVisibWave heightAir tempDewpointWater temp
2017-Jan-10 20:06N 36°43' W 076°14'1 2.1
2017-Jan-10 19:33N 36°44' W 076°15'6 6.1
2017-Jan-10 18:33N 36°49' W 076°18'3 3.2
2017-Jan-10 17:32N 36°52' W 076°20'5 5.2
2017-Jan-10 16:33N 36°47' W 076°18'4 3.9
2017-Jan-10 15:33N 36°44' W 076°16'2 1.6
2017-Jan-10 14:32N 36°43' W 076°14'  
2017-Jan-06 18:06N 36°43' W 076°14'1 1.5
2017-Jan-06 17:33N 36°43' W 076°15'6 5.7
2017-Jan-06 16:33N 36°49' W 076°17'4 4.3
2017-Jan-06 15:33N 36°52' W 076°20'4 3.2
2017-Jan-06 14:28N 36°50' W 076°17'2 1.8
2017-Jan-06 13:33N 36°49' W 076°17'4 3.9
2017-Jan-06 12:33N 36°45' W 076°18'0 0.4
2017-Jan-06 11:33N 36°45' W 076°18'4 0.3
2017-Jan-05 19:19N 36°43' W 076°13'2 2.4
2017-Jan-05 18:32N 36°43' W 076°15'5 4.7
2017-Jan-05 17:33N 36°47' W 076°18'3 3.2
2017-Jan-05 16:32N 36°50' W 076°17'1 0.8
2017-Jan-05 15:33N 36°51' W 076°18'7 6.3
2017-Jan-05 14:29N 36°44' W 076°17'2 0.1
2017-Jan-05 01:33N 36°43' W 076°15'3 2.8
2017-Jan-05 00:33N 36°44' W 076°18'5 4.9
2017-Jan-04 23:33N 36°49' W 076°17'5 4.6
2017-Jan-04 22:33N 36°53' W 076°20'1 1.2
2017-Jan-04 21:33N 36°52' W 076°20'0 0.0
2017-Jan-04 20:33N 36°52' W 076°20'0 0.0
2017-Jan-04 19:33N 36°52' W 076°20'0 0.0
2017-Jan-04 18:33N 36°52' W 076°20'0 0.0
2017-Jan-04 17:33N 36°52' W 076°20'0 0.0
2017-Jan-04 16:33N 36°52' W 076°20'0 0.0
2017-Jan-04 15:33N 36°52' W 076°20'0 0.0
2017-Jan-04 14:33N 36°52' W 076°20'0 0.0
2017-Jan-04 13:33N 36°52' W 076°20'0 0.4
2017-Jan-04 12:33N 36°52' W 076°20'6 5.9
2017-Jan-04 11:33N 36°47' W 076°18'4 4.1
2017-Jan-04 10:32N 36°43' W 076°15'0 0.0
2017-Jan-03 21:05N 36°43' W 076°14'1 1.7
2017-Jan-03 20:33N 36°44' W 076°15'4 3.7
2017-Jan-03 19:33N 36°47' W 076°18'4 3.7
2017-Jan-03 18:33N 36°50' W 076°18'1 1.3
2017-Jan-03 17:33N 36°51' W 076°19'4 3.6
2017-Jan-03 16:33N 36°48' W 076°18'4 3.9
2017-Jan-03 15:30N 36°44' W 076°17'2 2.4
2017-Jan-03 14:33N 36°43' W 076°14'  
Track history (hours):
 
Tides and Currents Weather Stations Pressure Air Temp Water Temp Dewpoint Dewpoint Depression Visibility Wind Speed Wind Dir Waves Ship Positions

Captain Ed

Owner: Norfolk Dredging Company, Chesapeake, VA. More information available from US FCC via Universal Licensing System and Coast Guard Vessel Documentation Center.

Last reported at 2017-Jan-10 20:06 UTC. Time now 2017-Jan-19 04:41 UTC.
Position N 36°43' W 076°14'.
Warning: this ship's position is 8 days out of date.

Length 22 m; draft 3 m.

Type: Tug. MMSI: 367473210.

Date/timePositionNaut miles runAvg speedWind from/ knotsBaromVisibWave heightAir tempDewpointWater temp
2017-Jan-10 20:06N 36°43' W 076°14'1 2.1
2017-Jan-10 19:33N 36°44' W 076°15'6 6.1
2017-Jan-10 18:33N 36°49' W 076°18'3 3.2
2017-Jan-10 17:32N 36°52' W 076°20'5 5.2
2017-Jan-10 16:33N 36°47' W 076°18'4 3.9
2017-Jan-10 15:33N 36°44' W 076°16'2 1.6
2017-Jan-10 14:32N 36°43' W 076°14'  
2017-Jan-06 18:06N 36°43' W 076°14'1 1.5
2017-Jan-06 17:33N 36°43' W 076°15'6 5.7
2017-Jan-06 16:33N 36°49' W 076°17'4 4.3
2017-Jan-06 15:33N 36°52' W 076°20'4 3.2
2017-Jan-06 14:28N 36°50' W 076°17'2 1.8
2017-Jan-06 13:33N 36°49' W 076°17'4 3.9
2017-Jan-06 12:33N 36°45' W 076°18'0 0.4
2017-Jan-06 11:33N 36°45' W 076°18'4 0.3
2017-Jan-05 19:19N 36°43' W 076°13'2 2.4
2017-Jan-05 18:32N 36°43' W 076°15'5 4.7
2017-Jan-05 17:33N 36°47' W 076°18'3 3.2
2017-Jan-05 16:32N 36°50' W 076°17'1 0.8
2017-Jan-05 15:33N 36°51' W 076°18'7 6.3
2017-Jan-05 14:29N 36°44' W 076°17'2 0.1
2017-Jan-05 01:33N 36°43' W 076°15'3 2.8
2017-Jan-05 00:33N 36°44' W 076°18'5 4.9
2017-Jan-04 23:33N 36°49' W 076°17'5 4.6
2017-Jan-04 22:33N 36°53' W 076°20'1 1.2
2017-Jan-04 21:33N 36°52' W 076°20'0 0.0
2017-Jan-04 20:33N 36°52' W 076°20'0 0.0
2017-Jan-04 19:33N 36°52' W 076°20'0 0.0
2017-Jan-04 18:33N 36°52' W 076°20'0 0.0
2017-Jan-04 17:33N 36°52' W 076°20'0 0.0
2017-Jan-04 16:33N 36°52' W 076°20'0 0.0
2017-Jan-04 15:33N 36°52' W 076°20'0 0.0
2017-Jan-04 14:33N 36°52' W 076°20'0 0.0
2017-Jan-04 13:33N 36°52' W 076°20'0 0.4
2017-Jan-04 12:33N 36°52' W 076°20'6 5.9
2017-Jan-04 11:33N 36°47' W 076°18'4 4.1
2017-Jan-04 10:32N 36°43' W 076°15'0 0.0
2017-Jan-03 21:05N 36°43' W 076°14'1 1.7
2017-Jan-03 20:33N 36°44' W 076°15'4 3.7
2017-Jan-03 19:33N 36°47' W 076°18'4 3.7
2017-Jan-03 18:33N 36°50' W 076°18'1 1.3
2017-Jan-03 17:33N 36°51' W 076°19'4 3.6
2017-Jan-03 16:33N 36°48' W 076°18'4 3.9
2017-Jan-03 15:30N 36°44' W 076°17'2 2.4
2017-Jan-03 14:33N 36°43' W 076°14'  

Dump ship's entire track history